Auburn, NY

8:25 PM EST on March 01, 2015 (GMT -0500)
Tompkins County | Change Station
CLOSE
Current Station
Airport
Location: Ithaca,
Elevation: 1099 ft
Nearby Weather Stations

Elev 1099 ft 42.49 °N, 76.46 °W | Updated 29 minutes ago

Overcast
Overcast
24 °F
Feels Like 15 °F
N
8
Wind Variable Wind from South

Today
High -- | Low -- °F
--% Chance of Precip.
Yesterday
High -- | Low -- °F
Precip. -- in
6:42 AM 5:55 PM
Waxing Gibbous, 88% visible
Pressure 30.21 in
Visibility 7.0 miles
Clouds Mostly Cloudy 3000 ft
Overcast 11000 ft
Windchill 15 °F
Dew Point 21 °F
Humidity 88%
Rainfall 0.00 in
Snow Depth Not available.
UV 0 out of 12
Pollen .40 out of 12
Air Quality Not available.
Flu Activity Not available.
METAR KITH 020056Z 19007KT 7SM -SHSN BKN030 OVC110 M04/M06 A3015 RMK AO2 T10441061 UPB19E50SNE19SHSNB50 P0000 SLP229

More Conditions Fewer Conditions

Pressure 30.21 in
Visibility 7.0 miles
Clouds Mostly Cloudy 3000 ft
Overcast 11000 ft
Windchill 15 °F
Dew Point 21 °F
Humidity 88%
Rainfall 0.00 in
Snow Depth Not available.
UV 0 out of 12
Pollen .40 out of 12
Air Quality Not available.
Flu Activity Not available.
METAR KITH 020056Z 19007KT 7SM -SHSN BKN030 OVC110 M04/M06 A3015 RMK AO2 T10441061 UPB19E50SNE19SHSNB50 P0000 SLP229

More Conditions Fewer Conditions

10-Day Weather Forecast

Almanac

Astronomy

Mar. 01, 2015 Rise Set
Actual Time
Civil Twilight
Nautical Twilight
Astronomical Twilight
Moon
Length of Visible Light
Length of Day
Tomorrow will be .
, % of the Moon is Illuminated

Today's Extremes

State Highs State Lows

Community

WunderPhotos

Upload Photos

1,801,678 photos uploaded!

WunderBlogs® & News

Nearby

Air Quality

  Air Quality AQ Index Pollutant
Not available.

Snow Depth

Station Depth Elevation

Earthquake Activity

City Distance Mag. Time & Date
Minimum magnitude displayed is 2.5.

Coastal Water Temperatures

Place Temperature

Nearby Weather Stations